createdAt,value
2019-02-03T00:00:28.125Z,4.30
2019-02-03T00:01:05.453Z,4.30
2019-02-03T00:01:40.822Z,4.30
2019-02-03T00:02:15.681Z,4.30
2019-02-03T00:02:50.329Z,4.40
2019-02-03T00:03:24.924Z,4.30
2019-02-03T00:03:59.536Z,4.40
2019-02-03T00:04:34.108Z,4.40
2019-02-03T00:05:09.174Z,4.40
2019-02-03T00:05:43.680Z,4.40
2019-02-03T00:06:18.268Z,4.50
2019-02-03T00:07:03.021Z,4.50
2019-02-03T00:07:29.157Z,4.40
2019-02-03T00:08:03.762Z,4.40
2019-02-03T00:08:38.340Z,4.40
2019-02-03T00:09:15.798Z,4.40
2019-02-03T00:09:50.301Z,4.30
2019-02-03T00:10:24.979Z,4.30
2019-02-03T00:10:59.682Z,4.20
2019-02-03T00:11:34.323Z,4.20
2019-02-03T00:12:09.196Z,4.10
2019-02-03T00:12:44.120Z,4.10
2019-02-03T00:13:18.686Z,4.10
2019-02-03T00:13:53.638Z,4.00
2019-02-03T00:14:28.249Z,4.00
2019-02-03T00:15:04.673Z,4.00
2019-02-03T00:15:39.251Z,3.90
2019-02-03T00:16:14.135Z,3.90
2019-02-03T00:16:48.716Z,3.90
2019-02-03T00:17:23.272Z,3.90
2019-02-03T00:18:00.106Z,4.00
2019-02-03T00:18:34.716Z,4.00
2019-02-03T00:19:09.289Z,4.00
2019-02-03T00:19:43.851Z,4.00
2019-02-03T00:20:18.381Z,3.90
2019-02-03T00:20:52.890Z,3.90
2019-02-03T00:21:28.078Z,3.90
2019-02-03T00:22:05.501Z,3.90
2019-02-03T00:22:39.180Z,3.80
2019-02-03T00:23:13.689Z,3.90
2019-02-03T00:23:48.200Z,3.90
2019-02-03T00:24:22.722Z,3.90
2019-02-03T00:24:57.390Z,4.00
2019-02-03T00:25:32.084Z,4.00
2019-02-03T00:26:06.625Z,4.00
2019-02-03T00:26:41.310Z,4.00
2019-02-03T00:27:15.905Z,4.00
2019-02-03T00:27:50.424Z,4.00
2019-02-03T00:28:24.988Z,4.00
2019-02-03T00:28:59.501Z,4.00
2019-02-03T00:29:34.094Z,4.00
2019-02-03T00:30:12.050Z,4.00
2019-02-03T00:30:46.630Z,4.00
2019-02-03T00:31:21.200Z,4.00
2019-02-03T00:31:56.177Z,4.00
2019-02-03T00:32:30.757Z,4.00
2019-02-03T00:33:05.402Z,4.10
2019-02-03T00:33:39.947Z,4.10
2019-02-03T00:34:14.612Z,4.10
2019-02-03T00:34:49.129Z,4.00
2019-02-03T00:35:23.746Z,4.00
2019-02-03T00:35:58.259Z,4.00
2019-02-03T00:36:32.845Z,4.00
2019-02-03T00:37:15.392Z,4.00
2019-02-03T00:37:43.643Z,4.00
2019-02-03T00:38:23.159Z,4.00
2019-02-03T00:38:54.539Z,4.00
2019-02-03T00:39:29.150Z,4.00
2019-02-03T00:40:07.146Z,4.00
2019-02-03T00:40:41.722Z,4.00
2019-02-03T00:41:16.633Z,3.90
2019-02-03T00:41:51.177Z,3.90
2019-02-03T00:42:26.045Z,3.90
2019-02-03T00:43:00.551Z,3.80
2019-02-03T00:43:35.244Z,3.90
2019-02-03T00:44:09.847Z,3.90
2019-02-03T00:44:44.516Z,3.90
2019-02-03T00:45:19.093Z,4.00
2019-02-03T00:45:53.840Z,4.00
2019-02-03T00:46:28.378Z,4.00
2019-02-03T00:47:02.953Z,4.00
2019-02-03T00:47:37.519Z,4.10
2019-02-03T00:48:12.041Z,4.10
2019-02-03T00:48:46.669Z,4.20
2019-02-03T00:49:21.262Z,4.20
2019-02-03T00:49:55.811Z,4.20
2019-02-03T00:50:30.382Z,4.20
2019-02-03T00:51:05.737Z,4.20
2019-02-03T00:51:40.250Z,4.20
2019-02-03T00:52:14.847Z,4.20
2019-02-03T00:52:49.429Z,4.20
2019-02-03T00:53:24.039Z,4.20
2019-02-03T00:53:58.920Z,4.20
2019-02-03T00:54:33.506Z,4.20
2019-02-03T00:55:11.515Z,4.20
2019-02-03T00:55:46.105Z,4.10
2019-02-03T00:56:20.685Z,4.10
2019-02-03T00:56:55.273Z,4.10
2019-02-03T00:57:32.325Z,4.20
2019-02-03T00:58:06.436Z,4.20
2019-02-03T00:58:41.031Z,4.20
2019-02-03T00:59:15.832Z,4.20
2019-02-03T00:59:50.393Z,4.20
2019-02-03T01:00:25.249Z,4.20
2019-02-03T01:00:59.905Z,4.20
2019-02-03T01:01:34.546Z,4.20
2019-02-03T01:02:09.121Z,4.30
2019-02-03T01:02:43.903Z,4.30
2019-02-03T01:03:18.642Z,4.30
2019-02-03T01:03:53.640Z,4.30
2019-02-03T01:04:28.212Z,4.30
2019-02-03T01:05:02.926Z,4.30
2019-02-03T01:05:37.564Z,4.40
2019-02-03T01:06:12.443Z,4.40
2019-02-03T01:06:48.900Z,4.40
2019-02-03T01:07:27.942Z,4.30
2019-02-03T01:08:03.395Z,4.20
2019-02-03T01:08:38.334Z,4.10
2019-02-03T01:09:13.287Z,4.10
2019-02-03T01:09:47.865Z,4.10
2019-02-03T01:10:24.155Z,4.10
2019-02-03T01:10:58.678Z,4.10
2019-02-03T01:11:33.185Z,4.20
2019-02-03T01:12:07.968Z,4.20
2019-02-03T01:12:42.910Z,4.20
2019-02-03T01:13:17.586Z,4.20
2019-02-03T01:13:52.254Z,4.30
2019-02-03T01:14:26.828Z,4.30
2019-02-03T01:15:01.471Z,4.30
2019-02-03T01:15:36.128Z,4.30
2019-02-03T01:16:10.713Z,4.20
2019-02-03T01:16:45.326Z,4.30
2019-02-03T01:17:20.084Z,4.30
2019-02-03T01:17:54.786Z,4.30
2019-02-03T01:18:29.299Z,4.30
2019-02-03T01:19:03.885Z,4.30
2019-02-03T01:19:38.463Z,4.20
2019-02-03T01:20:15.207Z,4.20
2019-02-03T01:20:49.853Z,4.20
2019-02-03T01:21:24.459Z,4.20
2019-02-03T01:21:59.357Z,4.30
2019-02-03T01:22:33.857Z,4.30
2019-02-03T01:23:08.575Z,4.30
2019-02-03T01:23:43.107Z,4.30
2019-02-03T01:24:17.835Z,4.30
2019-02-03T01:24:52.442Z,4.30
2019-02-03T01:25:27.103Z,4.30
2019-02-03T01:26:02.944Z,4.20
2019-02-03T01:26:37.474Z,4.30
2019-02-03T01:27:11.983Z,4.30
2019-02-03T01:27:46.611Z,4.20
2019-02-03T01:28:21.179Z,4.20
2019-02-03T01:28:56.019Z,4.20
2019-02-03T01:29:30.603Z,4.10
2019-02-03T01:30:08.190Z,4.10
2019-02-03T01:30:42.808Z,4.10
2019-02-03T01:31:17.387Z,4.10
2019-02-03T01:31:52.069Z,4.10
2019-02-03T01:32:26.711Z,4.10
2019-02-03T01:33:01.338Z,4.20
2019-02-03T01:33:35.918Z,4.30
2019-02-03T01:34:10.581Z,4.30
2019-02-03T01:34:45.189Z,4.30
2019-02-03T01:35:20.517Z,4.30
2019-02-03T01:35:55.070Z,4.40
2019-02-03T01:36:29.616Z,4.40
2019-02-03T01:37:04.361Z,4.30
2019-02-03T01:37:40.715Z,4.30
2019-02-03T01:38:15.164Z,4.20
2019-02-03T01:38:49.817Z,4.20
2019-02-03T01:39:24.716Z,4.20
2019-02-03T01:39:59.371Z,4.20
2019-02-03T01:40:34.463Z,4.20
2019-02-03T01:41:09.281Z,4.30
2019-02-03T01:41:45.413Z,4.30
2019-02-03T01:42:20.011Z,4.30
2019-02-03T01:42:54.561Z,4.30
2019-02-03T01:43:29.162Z,4.30
2019-02-03T01:44:03.846Z,4.40
2019-02-03T01:44:38.627Z,4.40
2019-02-03T01:45:21.256Z,4.40
2019-02-03T01:45:56.017Z,4.40
2019-02-03T01:46:30.684Z,4.30
2019-02-03T01:47:05.224Z,4.10
2019-02-03T01:47:39.809Z,4.10
2019-02-03T01:48:14.405Z,4.10
2019-02-03T01:48:48.983Z,4.00
2019-02-03T01:49:23.577Z,4.00
2019-02-03T01:49:58.223Z,4.00
2019-02-03T01:50:32.800Z,3.90
2019-02-03T01:51:07.389Z,3.90
2019-02-03T01:51:41.902Z,3.80
2019-02-03T01:52:16.514Z,3.80
2019-02-03T01:52:51.091Z,3.80
2019-02-03T01:53:25.687Z,3.90
2019-02-03T01:54:00.821Z,3.90
2019-02-03T01:54:35.404Z,3.90
2019-02-03T01:55:15.653Z,3.90
2019-02-03T01:55:50.249Z,3.90
2019-02-03T01:56:24.842Z,4.00
2019-02-03T01:56:59.412Z,3.90
2019-02-03T01:57:33.925Z,3.90
2019-02-03T01:58:08.521Z,3.80
2019-02-03T01:58:43.027Z,3.90
2019-02-03T01:59:17.689Z,3.90
2019-02-03T01:59:52.662Z,3.90
2019-02-03T02:00:29.573Z,3.90
2019-02-03T02:01:05.280Z,3.90
2019-02-03T02:01:39.796Z,3.90
2019-02-03T02:02:14.496Z,3.80
2019-02-03T02:02:49.204Z,3.70
2019-02-03T02:03:24.135Z,3.80
2019-02-03T02:03:58.677Z,3.70
2019-02-03T02:04:33.186Z,3.70
2019-02-03T02:05:08.817Z,3.70
2019-02-03T02:05:43.324Z,3.60
2019-02-03T02:06:17.838Z,3.50
2019-02-03T02:06:53.094Z,3.70
2019-02-03T02:07:27.803Z,3.50
2019-02-03T02:08:04.970Z,3.60
2019-02-03T02:08:38.596Z,3.50
2019-02-03T02:09:13.105Z,3.50
2019-02-03T02:09:47.692Z,3.60
2019-02-03T02:10:28.797Z,3.60
2019-02-03T02:11:03.348Z,3.60
2019-02-03T02:11:37.919Z,3.60
2019-02-03T02:12:12.498Z,3.50
2019-02-03T02:12:47.121Z,3.50
2019-02-03T02:13:21.824Z,3.50
2019-02-03T02:13:56.496Z,3.50
2019-02-03T02:14:31.155Z,3.50
2019-02-03T02:15:08.858Z,3.50
2019-02-03T02:15:43.439Z,3.50
2019-02-03T02:16:18.019Z,3.50
2019-02-03T02:16:52.716Z,3.40
2019-02-03T02:17:27.289Z,3.40
2019-02-03T02:18:01.868Z,3.40
2019-02-03T02:18:36.384Z,3.40
2019-02-03T02:19:10.959Z,3.40
2019-02-03T02:19:45.546Z,3.40
2019-02-03T02:20:22.743Z,3.40
2019-02-03T02:20:57.435Z,3.40
2019-02-03T02:21:32.132Z,3.40
2019-02-03T02:22:06.708Z,3.40
2019-02-03T02:22:41.303Z,3.50
2019-02-03T02:23:15.972Z,3.50
2019-02-03T02:23:50.573Z,3.50
2019-02-03T02:24:25.263Z,3.50
2019-02-03T02:25:00.325Z,3.60
2019-02-03T02:25:35.058Z,3.50
2019-02-03T02:26:10.013Z,3.60
2019-02-03T02:26:44.528Z,3.60
2019-02-03T02:27:19.580Z,3.60
2019-02-03T02:27:54.182Z,3.70
2019-02-03T02:28:29.090Z,3.70
2019-02-03T02:29:03.727Z,3.70
2019-02-03T02:29:38.600Z,3.70
2019-02-03T02:30:21.525Z,3.60
2019-02-03T02:30:55.392Z,3.60
2019-02-03T02:31:32.366Z,3.60
2019-02-03T02:32:06.327Z,3.60
2019-02-03T02:32:40.912Z,3.60
2019-02-03T02:33:16.169Z,3.60
2019-02-03T02:33:50.745Z,3.60
2019-02-03T02:34:25.334Z,3.60
2019-02-03T02:34:59.967Z,3.60
2019-02-03T02:35:34.478Z,3.60
2019-02-03T02:36:09.422Z,3.60
2019-02-03T02:36:44.100Z,3.70
2019-02-03T02:37:18.681Z,3.70
2019-02-03T02:38:05.983Z,3.80
2019-02-03T02:38:29.522Z,3.80
2019-02-03T02:39:06.629Z,3.80
2019-02-03T02:39:41.292Z,3.80
2019-02-03T02:40:21.017Z,3.80
2019-02-03T02:40:55.666Z,3.80
2019-02-03T02:41:30.247Z,3.80
2019-02-03T02:42:05.180Z,3.80
2019-02-03T02:42:39.755Z,3.80
2019-02-03T02:43:15.569Z,3.80
2019-02-03T02:43:50.189Z,3.80
2019-02-03T02:44:25.167Z,3.80
2019-02-03T02:44:59.720Z,3.90
2019-02-03T02:45:34.793Z,3.80
2019-02-03T02:46:09.457Z,3.80
2019-02-03T02:46:44.442Z,3.80
2019-02-03T02:47:19.017Z,3.80
2019-02-03T02:47:54.494Z,3.80
2019-02-03T02:48:29.061Z,3.80
2019-02-03T02:49:05.407Z,3.90
2019-02-03T02:49:40.028Z,3.90
2019-02-03T02:50:29.451Z,3.90
2019-02-03T02:51:04.103Z,3.90
2019-02-03T02:51:38.703Z,3.90
2019-02-03T02:52:13.268Z,3.90
2019-02-03T02:52:47.862Z,3.90
2019-02-03T02:53:22.370Z,3.90
2019-02-03T02:53:58.909Z,3.80
2019-02-03T02:54:33.192Z,3.80
2019-02-03T02:55:09.396Z,3.70
2019-02-03T02:55:44.072Z,3.80
2019-02-03T02:56:18.701Z,3.70
2019-02-03T02:56:53.215Z,3.80
2019-02-03T02:57:27.801Z,3.80
2019-02-03T02:58:02.821Z,3.70
2019-02-03T02:58:37.402Z,3.70
2019-02-03T02:59:11.999Z,3.70
2019-02-03T02:59:46.520Z,3.70
2019-02-03T03:00:25.469Z,3.70
2019-02-03T03:01:00.036Z,3.80
2019-02-03T03:01:41.062Z,3.80
2019-02-03T03:02:15.897Z,3.80
2019-02-03T03:02:50.473Z,3.80
2019-02-03T03:03:25.068Z,3.80
2019-02-03T03:03:59.576Z,3.70
2019-02-03T03:04:34.167Z,3.70
2019-02-03T03:05:09.981Z,3.80
2019-02-03T03:05:45.188Z,3.70
2019-02-03T03:06:19.828Z,3.70
2019-02-03T03:06:54.429Z,3.60
2019-02-03T03:07:29.076Z,3.70
2019-02-03T03:08:04.001Z,3.60
2019-02-03T03:08:38.732Z,3.60
2019-02-03T03:09:13.301Z,3.60
2019-02-03T03:09:48.155Z,3.60
2019-02-03T03:10:22.876Z,3.50
2019-02-03T03:10:57.349Z,3.50
2019-02-03T03:11:34.699Z,3.50
2019-02-03T03:12:08.303Z,3.60
2019-02-03T03:12:42.869Z,3.60
2019-02-03T03:13:18.140Z,3.60
2019-02-03T03:13:52.766Z,3.60
2019-02-03T03:14:27.326Z,3.50
2019-02-03T03:15:01.978Z,3.50
2019-02-03T03:15:36.581Z,3.40
2019-02-03T03:16:11.142Z,3.40
2019-02-03T03:16:45.654Z,3.40
2019-02-03T03:17:20.228Z,3.40
2019-02-03T03:17:54.774Z,3.40
2019-02-03T03:18:29.386Z,3.40
2019-02-03T03:19:03.925Z,3.50
2019-02-03T03:19:38.535Z,3.50
2019-02-03T03:20:18.270Z,3.50
2019-02-03T03:20:52.842Z,3.50
2019-02-03T03:21:33.318Z,3.50
2019-02-03T03:22:08.195Z,3.60
2019-02-03T03:22:42.868Z,3.60
2019-02-03T03:23:17.993Z,3.50
2019-02-03T03:23:52.718Z,3.50
2019-02-03T03:24:27.604Z,3.50
2019-02-03T03:25:02.295Z,3.40
2019-02-03T03:25:45.529Z,3.40
2019-02-03T03:26:20.223Z,3.40
2019-02-03T03:26:54.803Z,3.40
2019-02-03T03:27:29.582Z,3.30
2019-02-03T03:28:04.322Z,3.40
2019-02-03T03:28:41.950Z,3.40
2019-02-03T03:29:16.538Z,3.40
2019-02-03T03:29:51.130Z,3.30
2019-02-03T03:30:27.557Z,3.30
2019-02-03T03:31:02.068Z,3.30
2019-02-03T03:31:36.651Z,3.40
2019-02-03T03:32:11.553Z,3.30
2019-02-03T03:32:46.138Z,3.40
2019-02-03T03:33:20.891Z,3.40
2019-02-03T03:33:55.894Z,3.40
2019-02-03T03:34:30.514Z,3.40
2019-02-03T03:35:06.071Z,3.30
2019-02-03T03:35:40.854Z,3.30
2019-02-03T03:36:15.432Z,3.40
2019-02-03T03:36:50.118Z,3.40
2019-02-03T03:37:24.700Z,3.40
2019-02-03T03:37:59.213Z,3.40
2019-02-03T03:38:33.783Z,3.40
2019-02-03T03:39:08.938Z,3.40
2019-02-03T03:39:43.445Z,3.40
2019-02-03T03:40:26.449Z,3.40
2019-02-03T03:41:01.100Z,3.40
2019-02-03T03:41:35.725Z,3.40
2019-02-03T03:42:10.299Z,3.40
2019-02-03T03:42:44.919Z,3.40
2019-02-03T03:43:22.407Z,3.40
2019-02-03T03:43:57.090Z,3.40
2019-02-03T03:44:31.640Z,3.40
2019-02-03T03:45:08.309Z,3.30
2019-02-03T03:45:42.887Z,3.40
2019-02-03T03:46:17.478Z,3.40
2019-02-03T03:46:52.069Z,3.40
2019-02-03T03:47:26.652Z,3.40
2019-02-03T03:48:01.418Z,3.40
2019-02-03T03:48:36.002Z,3.40
2019-02-03T03:49:10.671Z,3.40
2019-02-03T03:49:45.433Z,3.40
2019-02-03T03:50:20.283Z,3.40
2019-02-03T03:50:54.885Z,3.40
2019-02-03T03:51:29.463Z,3.40
2019-02-03T03:52:04.324Z,3.30
2019-02-03T03:52:39.528Z,3.30
2019-02-03T03:53:14.170Z,3.40
2019-02-03T03:53:48.755Z,3.40
2019-02-03T03:54:23.272Z,3.40
2019-02-03T03:54:58.182Z,3.30
2019-02-03T03:55:32.821Z,3.30
2019-02-03T03:56:07.388Z,3.20
2019-02-03T03:56:41.896Z,3.30
2019-02-03T03:57:16.526Z,3.10
2019-02-03T03:57:51.279Z,3.10
2019-02-03T03:58:26.960Z,3.10
2019-02-03T03:59:01.548Z,3.10
2019-02-03T03:59:38.010Z,3.20
2019-02-03T04:00:18.250Z,3.20
2019-02-03T04:00:53.231Z,3.20
2019-02-03T04:01:27.816Z,3.30
2019-02-03T04:02:02.866Z,3.20
2019-02-03T04:02:37.485Z,3.20
2019-02-03T04:03:12.463Z,3.20
2019-02-03T04:03:48.837Z,3.20
2019-02-03T04:04:23.335Z,3.20
2019-02-03T04:04:57.930Z,3.30
2019-02-03T04:05:32.945Z,3.30
2019-02-03T04:06:07.588Z,3.20
2019-02-03T04:06:42.169Z,3.20
2019-02-03T04:07:16.768Z,3.20
2019-02-03T04:07:51.566Z,3.20
2019-02-03T04:08:26.135Z,3.10
2019-02-03T04:09:00.812Z,3.10
2019-02-03T04:09:35.403Z,3.10
2019-02-03T04:10:12.722Z,3.00
2019-02-03T04:10:47.318Z,3.10
2019-02-03T04:11:21.970Z,3.10
2019-02-03T04:11:56.536Z,3.10
2019-02-03T04:12:31.041Z,3.10
2019-02-03T04:13:05.806Z,3.10
2019-02-03T04:13:46.312Z,3.10
2019-02-03T04:14:20.991Z,3.10
2019-02-03T04:14:55.573Z,3.10
2019-02-03T04:15:30.151Z,3.10
2019-02-03T04:16:05.373Z,3.10
2019-02-03T04:16:39.962Z,3.00
2019-02-03T04:17:14.532Z,3.00
2019-02-03T04:17:49.653Z,3.00
2019-02-03T04:18:24.335Z,3.10
2019-02-03T04:18:58.976Z,3.10
2019-02-03T04:19:33.552Z,3.10
2019-02-03T04:20:11.195Z,3.10
2019-02-03T04:20:45.787Z,3.10
2019-02-03T04:21:20.356Z,3.10
2019-02-03T04:21:54.974Z,3.10
2019-02-03T04:22:29.476Z,3.10
2019-02-03T04:23:04.342Z,3.00
2019-02-03T04:23:38.939Z,3.20
2019-02-03T04:24:13.490Z,3.20
2019-02-03T04:24:48.010Z,3.20
2019-02-03T04:25:22.577Z,3.10
2019-02-03T04:25:57.166Z,3.10
2019-02-03T04:26:31.863Z,3.10
2019-02-03T04:27:06.375Z,3.10
2019-02-03T04:27:41.026Z,3.00
2019-02-03T04:28:15.654Z,3.00
2019-02-03T04:28:50.237Z,3.00
2019-02-03T04:29:24.853Z,3.00
2019-02-03T04:29:59.404Z,3.00
2019-02-03T04:30:34.754Z,3.00
2019-02-03T04:31:10.508Z,3.00
2019-02-03T04:31:45.655Z,3.10
2019-02-03T04:32:20.362Z,3.10
2019-02-03T04:32:56.468Z,3.10
2019-02-03T04:33:31.037Z,3.00
2019-02-03T04:34:05.840Z,3.00
2019-02-03T04:34:40.363Z,3.00
2019-02-03T04:35:15.070Z,2.90
2019-02-03T04:35:49.644Z,2.90
2019-02-03T04:36:24.284Z,2.90
2019-02-03T04:36:59.006Z,2.90
2019-02-03T04:37:33.604Z,2.90
2019-02-03T04:38:08.184Z,3.00
2019-02-03T04:38:42.781Z,3.00
2019-02-03T04:39:17.355Z,3.00
2019-02-03T04:39:51.929Z,3.00
2019-02-03T04:40:26.517Z,3.10
2019-02-03T04:41:01.265Z,3.10
2019-02-03T04:41:35.782Z,3.10
2019-02-03T04:42:10.366Z,3.20
2019-02-03T04:42:45.038Z,3.20
2019-02-03T04:43:19.731Z,3.20
2019-02-03T04:43:54.328Z,3.10
2019-02-03T04:44:28.911Z,3.20
2019-02-03T04:45:03.835Z,3.10
2019-02-03T04:45:40.056Z,3.10
2019-02-03T04:46:14.932Z,3.10
2019-02-03T04:46:49.482Z,3.10
2019-02-03T04:47:24.353Z,3.10
2019-02-03T04:47:58.966Z,3.10
2019-02-03T04:48:33.732Z,3.10
2019-02-03T04:49:08.360Z,3.20
2019-02-03T04:49:42.956Z,3.10
2019-02-03T04:50:19.547Z,3.10
2019-02-03T04:50:54.210Z,3.10
2019-02-03T04:51:28.805Z,3.10
2019-02-03T04:52:03.375Z,3.10
2019-02-03T04:52:38.117Z,3.10
2019-02-03T04:53:12.690Z,3.10
2019-02-03T04:53:47.265Z,3.10
2019-02-03T04:54:21.840Z,3.10
2019-02-03T04:54:56.435Z,3.10
2019-02-03T04:55:31.019Z,3.10
2019-02-03T04:56:05.606Z,3.10
2019-02-03T04:56:40.218Z,3.20
2019-02-03T04:57:14.787Z,3.20
2019-02-03T04:57:49.537Z,3.10
2019-02-03T04:58:24.124Z,3.10
2019-02-03T04:59:01.560Z,3.10
2019-02-03T04:59:36.129Z,3.10
2019-02-03T05:00:16.345Z,3.10
2019-02-03T05:00:50.912Z,3.10
2019-02-03T05:01:25.791Z,3.10
2019-02-03T05:02:00.427Z,3.10
2019-02-03T05:02:35.452Z,3.10
2019-02-03T05:03:10.056Z,3.10
2019-02-03T05:03:45.425Z,3.10
2019-02-03T05:04:20.179Z,3.10
2019-02-03T05:04:55.165Z,3.10
2019-02-03T05:05:30.208Z,3.10
2019-02-03T05:06:04.760Z,3.10
2019-02-03T05:06:39.346Z,3.00
2019-02-03T05:07:13.964Z,3.00
2019-02-03T05:07:48.837Z,3.00
2019-02-03T05:08:24.570Z,3.00
2019-02-03T05:09:10.671Z,3.10
2019-02-03T05:09:35.569Z,3.10
2019-02-03T05:10:12.165Z,3.10
2019-02-03T05:10:46.783Z,3.00
2019-02-03T05:11:21.297Z,3.00
2019-02-03T05:11:55.886Z,3.00
2019-02-03T05:12:30.400Z,3.00
2019-02-03T05:13:04.978Z,3.00
2019-02-03T05:13:39.517Z,3.00
2019-02-03T05:14:14.066Z,3.00
2019-02-03T05:14:48.657Z,3.00
2019-02-03T05:15:23.955Z,2.90
2019-02-03T05:15:58.517Z,3.00
2019-02-03T05:16:33.269Z,3.00
2019-02-03T05:17:08.464Z,2.90
2019-02-03T05:17:43.168Z,2.90
2019-02-03T05:18:17.783Z,2.90
2019-02-03T05:18:52.383Z,2.90
2019-02-03T05:19:26.985Z,2.90
2019-02-03T05:20:02.287Z,3.00
2019-02-03T05:20:37.083Z,2.90
2019-02-03T05:21:11.671Z,3.00
2019-02-03T05:21:46.240Z,2.90
2019-02-03T05:22:20.925Z,2.90
2019-02-03T05:22:55.508Z,2.90
2019-02-03T05:23:30.105Z,2.90
2019-02-03T05:24:04.818Z,2.90
2019-02-03T05:24:39.455Z,2.90
2019-02-03T05:25:14.880Z,2.80
2019-02-03T05:25:49.467Z,2.80
2019-02-03T05:26:24.023Z,2.70
2019-02-03T05:26:58.625Z,2.70
2019-02-03T05:27:33.204Z,2.80
2019-02-03T05:28:07.805Z,2.80
2019-02-03T05:28:42.368Z,2.70
2019-02-03T05:29:17.036Z,2.70
2019-02-03T05:29:51.621Z,2.70
2019-02-03T05:30:31.843Z,2.70
2019-02-03T05:31:06.760Z,2.70
2019-02-03T05:31:41.405Z,2.70
2019-02-03T05:32:16.363Z,2.60
2019-02-03T05:32:50.876Z,2.70
2019-02-03T05:33:25.772Z,2.60
2019-02-03T05:34:00.386Z,2.60
2019-02-03T05:34:35.277Z,2.60
2019-02-03T05:35:09.972Z,2.60
2019-02-03T05:35:44.972Z,2.60
2019-02-03T05:36:19.728Z,2.60
2019-02-03T05:36:54.303Z,2.60
2019-02-03T05:37:28.828Z,2.60
2019-02-03T05:38:03.412Z,2.60
2019-02-03T05:38:38.067Z,2.60
2019-02-03T05:39:24.354Z,2.60
2019-02-03T05:39:48.796Z,2.60
2019-02-03T05:40:23.566Z,2.60
2019-02-03T05:40:58.144Z,2.60
2019-02-03T05:41:32.718Z,2.50
2019-02-03T05:42:07.335Z,2.50
2019-02-03T05:42:42.010Z,2.50
2019-02-03T05:43:16.598Z,2.60
2019-02-03T05:43:51.111Z,2.60
2019-02-03T05:44:25.627Z,2.60
2019-02-03T05:45:00.365Z,2.70
2019-02-03T05:45:35.234Z,2.70
2019-02-03T05:46:09.831Z,2.70
2019-02-03T05:46:44.483Z,2.70
2019-02-03T05:47:19.243Z,2.70
2019-02-03T05:47:53.785Z,2.70
2019-02-03T05:48:30.177Z,2.70
2019-02-03T05:49:04.926Z,2.60
2019-02-03T05:49:39.548Z,2.60
2019-02-03T05:50:16.714Z,2.60
2019-02-03T05:50:51.206Z,2.60
2019-02-03T05:51:25.954Z,2.60
2019-02-03T05:52:00.511Z,2.60
2019-02-03T05:52:35.010Z,2.60
2019-02-03T05:53:09.530Z,2.70
2019-02-03T05:53:44.244Z,2.70
2019-02-03T05:54:18.887Z,2.60
2019-02-03T05:54:53.395Z,2.60
2019-02-03T05:55:28.048Z,2.60
2019-02-03T05:56:02.563Z,2.60
2019-02-03T05:56:37.257Z,2.60
2019-02-03T05:57:11.839Z,2.60
2019-02-03T05:57:48.063Z,2.60
2019-02-03T05:58:22.568Z,2.50
2019-02-03T05:58:57.076Z,2.40
2019-02-03T05:59:31.882Z,2.50
2019-02-03T06:00:12.402Z,2.50
2019-02-03T06:00:47.323Z,2.50
2019-02-03T06:01:21.901Z,2.50
2019-02-03T06:02:04.222Z,2.50
2019-02-03T06:02:38.967Z,2.40
2019-02-03T06:03:13.554Z,2.40
2019-02-03T06:03:48.130Z,2.40
2019-02-03T06:04:22.784Z,2.40
2019-02-03T06:04:57.365Z,2.40
2019-02-03T06:05:31.981Z,2.40
2019-02-03T06:06:06.627Z,2.40
2019-02-03T06:06:41.197Z,2.40
2019-02-03T06:07:15.834Z,2.40
2019-02-03T06:07:50.411Z,2.50
2019-02-03T06:08:25.051Z,2.40
2019-02-03T06:08:59.634Z,2.40
2019-02-03T06:09:36.667Z,2.50
2019-02-03T06:10:16.285Z,2.40
2019-02-03T06:10:50.840Z,2.40
2019-02-03T06:11:25.349Z,2.40
2019-02-03T06:12:00.025Z,2.40
2019-02-03T06:12:34.550Z,2.40
2019-02-03T06:13:09.050Z,2.40
2019-02-03T06:13:43.744Z,2.40
2019-02-03T06:14:18.308Z,2.40
2019-02-03T06:14:52.829Z,2.40
2019-02-03T06:15:27.441Z,2.40
2019-02-03T06:16:02.003Z,2.40
2019-02-03T06:16:36.638Z,2.40
2019-02-03T06:17:11.224Z,2.40
2019-02-03T06:17:45.868Z,2.40
2019-02-03T06:18:20.442Z,2.30
2019-02-03T06:18:55.061Z,2.30
2019-02-03T06:19:29.739Z,2.30
2019-02-03T06:20:07.338Z,2.30
2019-02-03T06:20:41.930Z,2.40
2019-02-03T06:21:16.515Z,2.40
2019-02-03T06:21:51.014Z,2.40
2019-02-03T06:22:25.594Z,2.40
2019-02-03T06:23:00.873Z,2.40
2019-02-03T06:23:35.449Z,2.40
2019-02-03T06:24:10.078Z,2.40
2019-02-03T06:24:45.133Z,2.50
2019-02-03T06:25:19.834Z,2.40
2019-02-03T06:25:54.853Z,2.40
2019-02-03T06:26:29.392Z,2.40
2019-02-03T06:27:04.620Z,2.40
2019-02-03T06:27:39.485Z,2.40
2019-02-03T06:28:14.374Z,2.40
2019-02-03T06:28:48.999Z,2.40
2019-02-03T06:29:25.282Z,2.40
2019-02-03T06:30:00.020Z,2.40
2019-02-03T06:30:40.318Z,2.40
2019-02-03T06:31:15.377Z,2.40
2019-02-03T06:31:51.437Z,2.40
2019-02-03T06:32:26.038Z,2.40
2019-02-03T06:33:02.157Z,2.30
2019-02-03T06:33:36.709Z,2.30
2019-02-03T06:34:11.283Z,2.30
2019-02-03T06:34:45.866Z,2.30
2019-02-03T06:35:20.442Z,2.30
2019-02-03T06:35:55.132Z,2.30
2019-02-03T06:36:29.725Z,2.30
2019-02-03T06:37:04.407Z,2.40
2019-02-03T06:37:39.055Z,2.40
2019-02-03T06:38:13.642Z,2.40
2019-02-03T06:38:48.565Z,2.40
2019-02-03T06:39:23.094Z,2.40
2019-02-03T06:39:57.672Z,2.40
2019-02-03T06:40:32.317Z,2.40
2019-02-03T06:41:06.999Z,2.40
2019-02-03T06:41:41.516Z,2.40
2019-02-03T06:42:16.135Z,2.30
2019-02-03T06:42:50.722Z,2.30
2019-02-03T06:43:25.308Z,2.30
2019-02-03T06:43:59.954Z,2.30
2019-02-03T06:44:34.459Z,2.30
2019-02-03T06:45:27.035Z,2.30
2019-02-03T06:46:19.756Z,2.40
2019-02-03T06:46:55.895Z,2.40
2019-02-03T06:47:30.531Z,2.40
2019-02-03T06:48:05.109Z,2.40
2019-02-03T06:48:39.704Z,2.30
2019-02-03T06:49:15.928Z,2.40
2019-02-03T06:49:50.890Z,2.40
2019-02-03T06:50:25.554Z,2.30
2019-02-03T06:51:00.529Z,2.30
2019-02-03T06:51:35.103Z,2.30
2019-02-03T06:52:10.041Z,2.30
2019-02-03T06:52:44.584Z,2.40
2019-02-03T06:53:19.421Z,2.40
2019-02-03T06:53:55.092Z,2.40
2019-02-03T06:54:29.669Z,2.40
2019-02-03T06:55:08.367Z,2.30
2019-02-03T06:55:44.917Z,2.30
2019-02-03T06:56:19.689Z,2.40
2019-02-03T06:56:54.745Z,2.30
2019-02-03T06:57:29.236Z,2.40
2019-02-03T06:58:03.951Z,2.40
2019-02-03T06:58:38.522Z,2.30
2019-02-03T06:59:13.031Z,2.30
2019-02-03T06:59:50.856Z,2.30
2019-02-03T07:00:23.807Z,2.40
2019-02-03T07:00:59.367Z,2.30
2019-02-03T07:01:33.878Z,2.30
2019-02-03T07:02:08.569Z,2.30
2019-02-03T07:02:43.170Z,2.30
2019-02-03T07:03:17.800Z,2.40
2019-02-03T07:03:52.447Z,2.40
2019-02-03T07:04:27.005Z,2.30
2019-02-03T07:05:01.519Z,2.30
2019-02-03T07:05:36.118Z,2.30
2019-02-03T07:06:10.677Z,2.30
2019-02-03T07:06:45.499Z,2.30
2019-02-03T07:07:20.237Z,2.30
2019-02-03T07:07:54.820Z,2.30
2019-02-03T07:08:29.401Z,2.30
2019-02-03T07:09:05.521Z,2.30
2019-02-03T07:09:40.025Z,2.30
2019-02-03T07:10:14.521Z,2.30
2019-02-03T07:10:49.030Z,2.40
2019-02-03T07:11:23.619Z,2.40
2019-02-03T07:11:58.188Z,2.40
2019-02-03T07:12:32.777Z,2.40
2019-02-03T07:13:07.355Z,2.40
2019-02-03T07:13:42.106Z,2.40
2019-02-03T07:14:16.682Z,2.40
2019-02-03T07:14:51.210Z,2.30
2019-02-03T07:15:25.813Z,2.30
2019-02-03T07:16:00.340Z,2.30
2019-02-03T07:16:41.947Z,2.30
2019-02-03T07:17:11.109Z,2.30
2019-02-03T07:17:45.633Z,2.40
2019-02-03T07:18:20.503Z,2.40
2019-02-03T07:18:55.068Z,2.40
2019-02-03T07:19:29.573Z,2.40
2019-02-03T07:20:12.762Z,2.40
2019-02-03T07:20:47.337Z,2.40
2019-02-03T07:21:21.928Z,2.30
2019-02-03T07:21:56.522Z,2.30
2019-02-03T07:22:31.105Z,2.30
2019-02-03T07:23:05.598Z,2.30
2019-02-03T07:23:40.265Z,2.30
2019-02-03T07:24:14.764Z,2.20
2019-02-03T07:24:49.273Z,2.20
2019-02-03T07:25:23.867Z,2.30
2019-02-03T07:25:58.386Z,2.30
2019-02-03T07:26:33.065Z,2.30
2019-02-03T07:27:07.669Z,2.30
2019-02-03T07:27:42.313Z,2.30
2019-02-03T07:28:16.884Z,2.30
2019-02-03T07:28:51.695Z,2.30
2019-02-03T07:29:26.229Z,2.30
2019-02-03T07:30:00.752Z,2.40
2019-02-03T07:30:35.249Z,2.40
2019-02-03T07:31:10.794Z,2.40
2019-02-03T07:31:45.365Z,2.40
2019-02-03T07:32:19.952Z,2.40
2019-02-03T07:32:54.938Z,2.40
2019-02-03T07:33:29.564Z,2.40
2019-02-03T07:34:04.924Z,2.40
2019-02-03T07:34:39.533Z,2.40
2019-02-03T07:35:14.143Z,2.40
2019-02-03T07:35:48.665Z,2.40
2019-02-03T07:36:23.176Z,2.40
2019-02-03T07:36:57.815Z,2.40
2019-02-03T07:37:32.483Z,2.40
2019-02-03T07:38:07.046Z,2.40
2019-02-03T07:38:41.622Z,2.40
2019-02-03T07:39:16.202Z,2.40
2019-02-03T07:39:50.768Z,2.40
2019-02-03T07:40:25.279Z,2.40
2019-02-03T07:40:59.945Z,2.40
2019-02-03T07:41:34.437Z,2.40
2019-02-03T07:42:09.245Z,2.40
2019-02-03T07:42:43.894Z,2.40
2019-02-03T07:43:18.473Z,2.40
2019-02-03T07:43:52.987Z,2.40
2019-02-03T07:44:27.577Z,2.40
2019-02-03T07:45:02.129Z,2.40
2019-02-03T07:45:36.752Z,2.40
2019-02-03T07:46:11.467Z,2.50
2019-02-03T07:46:47.702Z,2.40